Time;durP1;ratioP1;P1;durP2;ratioP2;P2;SDS_P1;SDS_P2;PMS_P1;PMS_P2;Temp;Humidity;BMP_temperature;BMP_pressure;BME280_temperature;BME280_humidity;BME280_pressure;Samples;Min_cycle;Max_cycle;Signal;HPM_P1;HPM_P2
2023/10/16 00:00:49;;;;;;;4.72;1.40;;;;;;;;;;4966454;28;20458;-81
2023/10/16 00:03:17;;;;;;;5.40;1.70;;;;;;;;;;4979350;28;20407;-81
2023/10/16 00:05:49;;;;;;;3.97;1.60;;;;;;;;;;4970263;28;20055;-81
2023/10/16 00:08:18;;;;;;;6.38;1.75;;;;;;;;;;4972202;28;20046;-81
2023/10/16 00:10:57;;;;;;;4.28;1.50;;;;;;;;;;4981582;28;20047;-81
2023/10/16 00:13:26;;;;;;;5.60;1.70;;;;;;;;;;4955195;28;20057;-80
2023/10/16 00:15:54;;;;;;;7.32;1.73;;;;;;;;;;4975248;28;20084;-81
2023/10/16 00:18:23;;;;;;;4.15;1.30;;;;;;;;;;4973794;28;20130;-81
2023/10/16 00:20:56;;;;;;;5.25;1.67;;;;;;;;;;4976347;28;20048;-81
2023/10/16 00:23:25;;;;;;;2.90;1.40;;;;;;;;;;4978623;28;20042;-80
2023/10/16 00:25:52;;;;;;;5.50;1.52;;;;;;;;;;4978970;28;20101;-81
2023/10/16 00:28:21;;;;;;;2.13;1.23;;;;;;;;;;4979390;28;20046;-81
2023/10/16 00:30:51;;;;;;;3.90;1.45;;;;;;;;;;4975330;28;20065;-80
2023/10/16 00:33:17;;;;;;;3.92;1.40;;;;;;;;;;4980364;28;20567;-80
2023/10/16 00:35:51;;;;;;;4.93;1.80;;;;;;;;;;4978016;28;20050;-80
2023/10/16 00:38:19;;;;;;;1.70;1.60;;;;;;;;;;4976376;28;20502;-81
2023/10/16 00:40:51;;;;;;;3.20;1.40;;;;;;;;;;4978389;28;20418;-80
2023/10/16 00:43:21;;;;;;;12.23;2.03;;;;;;;;;;4969042;28;20435;-80
2023/10/16 00:45:59;;;;;;;6.75;1.63;;;;;;;;;;4968196;28;20050;-80
2023/10/16 00:48:25;;;;;;;4.57;2.53;;;;;;;;;;4975079;28;20050;-80
2023/10/16 00:50:51;;;;;;;5.88;2.00;;;;;;;;;;4974290;28;20117;-80
2023/10/16 00:53:23;;;;;;;10.70;2.10;;;;;;;;;;4976602;28;20046;-80
2023/10/16 00:55:50;;;;;;;6.40;1.92;;;;;;;;;;4975327;28;20050;-81
2023/10/16 00:58:17;;;;;;;8.48;2.20;;;;;;;;;;4973712;28;20046;-81
2023/10/16 01:00:46;;;;;;;4.78;2.25;;;;;;;;;;4988259;28;20053;-80
2023/10/16 01:03:12;;;;;;;3.70;1.70;;;;;;;;;;4983766;28;20478;-81
2023/10/16 01:05:42;;;;;;;4.45;1.70;;;;;;;;;;4979001;28;20098;-80
2023/10/16 01:08:10;;;;;;;5.18;1.80;;;;;;;;;;4970064;28;20038;-81
2023/10/16 01:10:40;;;;;;;5.03;1.80;;;;;;;;;;4978703;28;20136;-81
2023/10/16 01:13:09;;;;;;;6.63;1.90;;;;;;;;;;4966360;28;20174;-81
2023/10/16 01:15:43;;;;;;;8.88;1.73;;;;;;;;;;4972453;28;20141;-80
2023/10/16 01:18:11;;;;;;;5.90;1.70;;;;;;;;;;4978755;28;20046;-80
2023/10/16 01:20:37;;;;;;;8.00;1.92;;;;;;;;;;4984820;28;20411;-80
2023/10/16 01:23:07;;;;;;;6.55;2.00;;;;;;;;;;4976153;28;20124;-80
2023/10/16 01:25:33;;;;;;;5.03;1.70;;;;;;;;;;4983654;28;20045;-80
2023/10/16 01:28:00;;;;;;;9.18;1.75;;;;;;;;;;4976772;28;20043;-80
2023/10/16 01:30:26;;;;;;;4.28;2.20;;;;;;;;;;4972301;28;20054;-81
2023/10/16 01:32:52;;;;;;;4.00;1.90;;;;;;;;;;4978932;28;20038;-80
2023/10/16 01:35:18;;;;;;;7.20;1.90;;;;;;;;;;4985497;28;20409;-81
2023/10/16 01:37:46;;;;;;;7.10;1.73;;;;;;;;;;4972057;28;20046;-80
2023/10/16 01:42:44;;;;;;;6.78;1.98;;;;;;;;;;4982236;28;20505;-80
2023/10/16 01:45:12;;;;;;;6.72;1.85;;;;;;;;;;4980687;28;20049;-81
2023/10/16 01:47:39;;;;;;;3.67;1.75;;;;;;;;;;5018142;28;20054;-81
2023/10/16 01:50:05;;;;;;;4.00;1.83;;;;;;;;;;4977284;28;20148;-80
2023/10/16 01:52:34;;;;;;;3.40;1.50;;;;;;;;;;4984363;28;20062;-81
2023/10/16 01:55:00;;;;;;;7.50;2.10;;;;;;;;;;4984226;28;20126;-81
2023/10/16 01:57:26;;;;;;;8.15;2.10;;;;;;;;;;4971216;28;20062;-81
2023/10/16 01:59:53;;;;;;;3.92;2.10;;;;;;;;;;4969083;28;20471;-80
2023/10/16 02:02:19;;;;;;;9.90;2.42;;;;;;;;;;4974217;28;20398;-81
2023/10/16 02:04:45;;;;;;;7.63;1.92;;;;;;;;;;4974923;28;20463;-81
2023/10/16 02:07:14;;;;;;;6.00;1.80;;;;;;;;;;4973491;28;20050;-81
2023/10/16 02:09:40;;;;;;;8.57;2.20;;;;;;;;;;4975914;28;20042;-81
2023/10/16 02:12:16;;;;;;;8.77;2.00;;;;;;;;;;4984483;28;20089;-80
2023/10/16 02:14:42;;;;;;;13.98;2.50;;;;;;;;;;5001456;28;20046;-80
2023/10/16 02:17:19;;;;;;;7.15;1.85;;;;;;;;;;4984317;28;20051;-80
2023/10/16 02:19:45;;;;;;;5.90;2.08;;;;;;;;;;4981675;28;20409;-80
2023/10/16 02:22:12;;;;;;;8.80;2.58;;;;;;;;;;4980291;28;20046;-80
2023/10/16 02:24:40;;;;;;;5.65;1.73;;;;;;;;;;4977426;28;20046;-80
2023/10/16 02:27:11;;;;;;;4.40;1.92;;;;;;;;;;4982279;28;20462;-80
2023/10/16 02:29:39;;;;;;;2.78;1.50;;;;;;;;;;4993122;28;20074;-80
2023/10/16 02:32:09;;;;;;;2.33;1.38;;;;;;;;;;4985401;28;20104;-80
2023/10/16 02:34:36;;;;;;;4.72;1.70;;;;;;;;;;4985557;28;20410;-80
2023/10/16 02:37:14;;;;;;;7.75;1.50;;;;;;;;;;4978183;28;20042;-80
2023/10/16 02:39:41;;;;;;;5.45;1.73;;;;;;;;;;4978029;28;20101;-80
2023/10/16 02:42:14;;;;;;;6.53;1.75;;;;;;;;;;4970263;28;20407;-80
2023/10/16 02:44:42;;;;;;;7.50;2.20;;;;;;;;;;4984639;28;20073;-81
2023/10/16 02:47:09;;;;;;;4.65;1.33;;;;;;;;;;4979215;28;20058;-80
2023/10/16 02:49:35;;;;;;;3.40;1.75;;;;;;;;;;4973773;28;20053;-80
2023/10/16 02:52:01;;;;;;;7.22;1.92;;;;;;;;;;4964034;28;20518;-80
2023/10/16 02:54:27;;;;;;;5.15;1.98;;;;;;;;;;4962727;28;20066;-80
2023/10/16 02:56:59;;;;;;;4.05;1.50;;;;;;;;;;4977289;28;20491;-80
2023/10/16 02:59:26;;;;;;;4.35;1.52;;;;;;;;;;4984211;28;20516;-80
2023/10/16 03:01:53;;;;;;;1.42;1.33;;;;;;;;;;4979215;28;20050;-80
2023/10/16 03:04:23;;;;;;;4.45;1.75;;;;;;;;;;4982145;28;20466;-80
2023/10/16 03:06:53;;;;;;;6.53;1.90;;;;;;;;;;4984774;28;20038;-80
2023/10/16 03:09:31;;;;;;;10.88;1.85;;;;;;;;;;4981218;28;20054;-81
2023/10/16 03:12:04;;;;;;;8.23;1.58;;;;;;;;;;4983498;28;20046;-80
2023/10/16 03:14:44;;;;;;;7.60;1.70;;;;;;;;;;4978415;28;20137;-81
2023/10/16 03:17:12;;;;;;;12.18;1.90;;;;;;;;;;4984447;28;20053;-81
2023/10/16 03:19:44;;;;;;;5.97;1.60;;;;;;;;;;4982220;28;20043;-80
2023/10/16 03:22:12;;;;;;;9.85;1.60;;;;;;;;;;4963158;28;20054;-80
2023/10/16 03:24:38;;;;;;;8.05;1.98;;;;;;;;;;5004760;28;20055;-80
2023/10/16 03:27:08;;;;;;;6.75;1.90;;;;;;;;;;4974361;28;20395;-80
2023/10/16 03:29:34;;;;;;;5.72;1.85;;;;;;;;;;4982301;28;20495;-81
2023/10/16 03:32:00;;;;;;;3.38;1.58;;;;;;;;;;4989427;28;20053;-81
2023/10/16 03:34:26;;;;;;;6.80;2.10;;;;;;;;;;4977667;28;20046;-81
2023/10/16 03:37:00;;;;;;;4.03;1.67;;;;;;;;;;4973455;28;20046;-80
2023/10/16 03:39:26;;;;;;;3.30;1.70;;;;;;;;;;4974289;28;20318;-80
2023/10/16 03:41:52;;;;;;;3.05;1.48;;;;;;;;;;4969722;28;20400;-80
2023/10/16 03:44:21;;;;;;;3.83;1.60;;;;;;;;;;4986046;28;20050;-80
2023/10/16 03:46:49;;;;;;;3.92;1.60;;;;;;;;;;4982614;28;20528;-80
2023/10/16 03:49:15;;;;;;;4.13;1.60;;;;;;;;;;4982557;28;20148;-80
2023/10/16 03:51:41;;;;;;;5.38;1.77;;;;;;;;;;4984036;28;20398;-80
2023/10/16 03:54:11;;;;;;;4.47;1.80;;;;;;;;;;4982325;28;20421;-80
2023/10/16 03:56:38;;;;;;;1.80;1.30;;;;;;;;;;4966411;28;20636;-80
2023/10/16 03:59:05;;;;;;;4.47;1.65;;;;;;;;;;4998664;28;20078;-80
2023/10/16 04:01:35;;;;;;;5.10;1.60;;;;;;;;;;4978397;28;20047;-80
2023/10/16 04:04:03;;;;;;;1.98;1.40;;;;;;;;;;4982888;28;20049;-80
2023/10/16 04:06:30;;;;;;;4.05;1.88;;;;;;;;;;4983394;28;20054;-80
2023/10/16 04:08:59;;;;;;;5.40;1.60;;;;;;;;;;4984851;28;20042;-80
2023/10/16 04:11:25;;;;;;;6.30;1.45;;;;;;;;;;4980081;28;20054;-80
2023/10/16 04:13:54;;;;;;;5.07;1.80;;;;;;;;;;4976921;28;20051;-80
2023/10/16 04:16:42;;;;;;;3.40;1.40;;;;;;;;;;4980071;28;20096;-80
2023/10/16 04:21:44;;;;;;;6.88;1.95;;;;;;;;;;5000135;28;20056;-80
2023/10/16 04:27:29;;;;;;;7.03;2.55;;;;;;;;;;4974011;28;20054;-81
2023/10/16 04:34:54;;;;;;;4.93;1.65;;;;;;;;;;4980948;28;20073;-80
2023/10/16 04:37:29;;;;;;;8.05;2.00;;;;;;;;;;4966368;28;20101;-80
2023/10/16 04:47:42;;;;;;;9.98;2.25;;;;;;;;;;4982193;28;20069;-80
2023/10/16 04:50:09;;;;;;;6.30;2.47;;;;;;;;;;4976247;28;20072;-80
2023/10/16 05:00:56;;;;;;;8.90;2.53;;;;;;;;;;4979710;28;20063;-80
2023/10/16 05:22:02;;;;;;;5.80;2.03;;;;;;;;;;4973312;28;20752;-80
2023/10/16 06:14:13;;;;;;;7.38;2.75;;;;;;;;;;4973661;28;20046;-79
2023/10/16 06:16:42;;;;;;;10.13;2.95;;;;;;;;;;4978245;28;20474;-80
2023/10/16 06:19:15;;;;;;;14.10;3.05;;;;;;;;;;4982885;28;20057;-79
2023/10/16 06:21:48;;;;;;;14.23;3.70;;;;;;;;;;4982972;28;20078;-79
2023/10/16 06:24:25;;;;;;;12.63;3.67;;;;;;;;;;4973257;28;20055;-79
2023/10/16 06:26:51;;;;;;;11.73;3.38;;;;;;;;;;4975393;28;20109;-80
2023/10/16 06:29:18;;;;;;;7.68;2.80;;;;;;;;;;4971991;28;20043;-80
2023/10/16 06:31:53;;;;;;;5.95;2.83;;;;;;;;;;4973130;28;20438;-81
2023/10/16 06:34:19;;;;;;;6.13;2.85;;;;;;;;;;4984489;28;20537;-80
2023/10/16 06:36:45;;;;;;;10.48;2.72;;;;;;;;;;4981986;28;20050;-81
2023/10/16 06:39:22;;;;;;;13.10;2.65;;;;;;;;;;4970665;28;20101;-81
2023/10/16 06:41:54;;;;;;;8.05;2.88;;;;;;;;;;4982760;28;20085;-79
2023/10/16 06:44:28;;;;;;;11.02;5.38;;;;;;;;;;4973323;28;20054;-80
2023/10/16 06:46:58;;;;;;;11.55;3.95;;;;;;;;;;4981896;28;20125;-81
2023/10/16 06:49:26;;;;;;;9.82;3.25;;;;;;;;;;4989025;28;20070;-80
2023/10/16 06:51:56;;;;;;;17.15;4.35;;;;;;;;;;4981756;28;20038;-80
2023/10/16 06:54:22;;;;;;;15.63;4.18;;;;;;;;;;4982633;28;20051;-81
2023/10/16 06:56:48;;;;;;;14.40;3.15;;;;;;;;;;4981596;28;20069;-81
2023/10/16 06:59:16;;;;;;;9.60;2.83;;;;;;;;;;4976390;28;20422;-81
2023/10/16 07:01:46;;;;;;;7.82;2.55;;;;;;;;;;4984869;28;20054;-81
2023/10/16 07:04:13;;;;;;;8.35;2.75;;;;;;;;;;4965004;28;20050;-80
2023/10/16 07:06:42;;;;;;;12.10;2.80;;;;;;;;;;4976614;28;20046;-80
2023/10/16 07:09:09;;;;;;;11.35;2.85;;;;;;;;;;4984238;28;20054;-80
2023/10/16 07:11:42;;;;;;;12.63;3.20;;;;;;;;;;4992657;28;20558;-81
2023/10/16 07:14:17;;;;;;;12.77;2.85;;;;;;;;;;4976199;28;20054;-80
2023/10/16 07:16:43;;;;;;;11.30;3.00;;;;;;;;;;4986442;28;20054;-80
2023/10/16 07:19:16;;;;;;;8.02;2.38;;;;;;;;;;4983337;28;20109;-79
2023/10/16 07:21:48;;;;;;;11.77;2.50;;;;;;;;;;4975152;28;20042;-81
2023/10/16 07:24:15;;;;;;;5.13;2.58;;;;;;;;;;4997613;28;20499;-81
2023/10/16 07:26:41;;;;;;;10.50;2.47;;;;;;;;;;4982347;28;20042;-81
2023/10/16 07:29:07;;;;;;;9.32;2.90;;;;;;;;;;4977826;28;20050;-81
2023/10/16 07:31:34;;;;;;;10.27;2.42;;;;;;;;;;4981408;28;20437;-81
2023/10/16 07:34:04;;;;;;;14.00;2.88;;;;;;;;;;4980196;28;20448;-82
2023/10/16 07:36:30;;;;;;;6.45;2.72;;;;;;;;;;4972402;28;20504;-82
2023/10/16 07:38:56;;;;;;;5.50;2.30;;;;;;;;;;4982825;28;20509;-81
2023/10/16 07:41:25;;;;;;;8.48;2.50;;;;;;;;;;4980656;28;20055;-82
2023/10/16 07:43:56;;;;;;;9.27;2.80;;;;;;;;;;4958079;28;20131;-81
2023/10/16 07:46:32;;;;;;;11.07;2.65;;;;;;;;;;4979469;28;20285;-82
2023/10/16 07:49:09;;;;;;;6.40;2.40;;;;;;;;;;4997672;28;20438;-81
2023/10/16 07:51:35;;;;;;;9.45;2.60;;;;;;;;;;4988399;28;20053;-81
2023/10/16 07:54:06;;;;;;;6.18;2.40;;;;;;;;;;4973682;28;20046;-82
2023/10/16 07:56:38;;;;;;;10.55;2.80;;;;;;;;;;4977408;28;20047;-82
2023/10/16 07:59:08;;;;;;;13.38;3.63;;;;;;;;;;4983181;28;20054;-82
2023/10/16 08:06:52;;;;;;;7.15;2.83;;;;;;;;;;4984959;28;20050;-74
2023/10/16 08:11:57;;;;;;;10.23;2.50;;;;;;;;;;4975742;28;20050;-79
2023/10/16 08:14:27;;;;;;;7.85;2.45;;;;;;;;;;4983154;28;20105;-75
2023/10/16 08:16:58;;;;;;;9.38;2.63;;;;;;;;;;4981803;28;20038;-81
2023/10/16 08:19:26;;;;;;;9.65;2.70;;;;;;;;;;4953487;28;20047;-80
2023/10/16 08:21:56;;;;;;;8.65;2.67;;;;;;;;;;4967110;28;20074;-80
2023/10/16 08:24:24;;;;;;;10.50;2.80;;;;;;;;;;4969075;28;20074;-80
2023/10/16 08:26:50;;;;;;;9.20;3.08;;;;;;;;;;4973205;28;20073;-81
2023/10/16 08:31:43;;;;;;;3.47;2.10;;;;;;;;;;4968729;28;20054;-80
2023/10/16 08:34:10;;;;;;;5.18;1.98;;;;;;;;;;4965514;28;20101;-80
2023/10/16 08:36:36;;;;;;;7.30;2.10;;;;;;;;;;4979039;28;20097;-80
2023/10/16 08:39:08;;;;;;;9.57;2.30;;;;;;;;;;4981295;28;20046;-79
2023/10/16 08:41:53;;;;;;;5.83;2.10;;;;;;;;;;4970050;28;20049;-79
2023/10/16 08:44:24;;;;;;;7.32;2.45;;;;;;;;;;4965836;28;20055;-80
2023/10/16 08:49:23;;;;;;;8.27;2.90;;;;;;;;;;4971087;28;20062;-79
2023/10/16 08:52:03;;;;;;;5.78;1.95;;;;;;;;;;4968427;28;20043;-79
2023/10/16 08:54:45;;;;;;;7.22;1.98;;;;;;;;;;4963120;28;20090;-79
2023/10/16 08:57:12;;;;;;;9.05;2.20;;;;;;;;;;4968149;28;20077;-79
2023/10/16 08:59:38;;;;;;;7.97;2.50;;;;;;;;;;4970901;28;20572;-79
2023/10/16 09:02:07;;;;;;;8.40;2.38;;;;;;;;;;4967222;28;20046;-78
2023/10/16 09:04:35;;;;;;;6.88;2.10;;;;;;;;;;4969156;28;20429;-78
2023/10/16 09:07:01;;;;;;;7.70;2.78;;;;;;;;;;4970015;28;20035;-78
2023/10/16 09:09:28;;;;;;;7.88;2.75;;;;;;;;;;4967360;28;20148;-79
2023/10/16 09:12:04;;;;;;;10.48;3.35;;;;;;;;;;4966791;28;20074;-79
2023/10/16 09:14:37;;;;;;;9.48;2.80;;;;;;;;;;4969608;28;20138;-79
2023/10/16 09:17:06;;;;;;;8.38;2.38;;;;;;;;;;4963773;28;20050;-78
2023/10/16 09:19:34;;;;;;;11.02;2.40;;;;;;;;;;4964841;28;20102;-79
2023/10/16 09:22:04;;;;;;;7.78;2.72;;;;;;;;;;4962994;28;20130;-79
2023/10/16 09:24:30;;;;;;;11.13;3.20;;;;;;;;;;4969679;28;20069;-75
2023/10/16 09:26:59;;;;;;;11.95;3.35;;;;;;;;;;4973424;28;20494;-79
2023/10/16 09:29:25;;;;;;;10.68;2.42;;;;;;;;;;4966949;28;20597;-79
2023/10/16 09:31:51;;;;;;;9.15;2.35;;;;;;;;;;4971313;28;20109;-79
2023/10/16 09:34:25;;;;;;;8.35;2.70;;;;;;;;;;4972130;28;20047;-79
2023/10/16 09:39:40;;;;;;;9.00;2.38;;;;;;;;;;4963631;28;20051;-79
2023/10/16 09:42:15;;;;;;;9.93;2.50;;;;;;;;;;4965446;28;20057;-79
2023/10/16 09:44:44;;;;;;;7.05;2.65;;;;;;;;;;4969484;28;20054;-79
2023/10/16 09:47:25;;;;;;;10.82;2.28;;;;;;;;;;4967929;28;20054;-79
2023/10/16 09:49:55;;;;;;;11.38;2.63;;;;;;;;;;4956704;28;20134;-79
2023/10/16 09:52:22;;;;;;;12.45;2.33;;;;;;;;;;4970441;28;20054;-79
2023/10/16 09:54:49;;;;;;;9.25;2.30;;;;;;;;;;4968087;28;20054;-79
2023/10/16 09:57:27;;;;;;;7.47;2.00;;;;;;;;;;4973764;28;20050;-79
2023/10/16 10:02:42;;;;;;;17.50;3.08;;;;;;;;;;4971873;28;20133;-78
2023/10/16 10:05:09;;;;;;;9.98;2.83;;;;;;;;;;4972740;28;20050;-83
2023/10/16 10:07:38;;;;;;;13.23;3.03;;;;;;;;;;4977566;28;20090;-79
2023/10/16 10:12:54;;;;;;;6.40;2.20;;;;;;;;;;4989923;28;20054;-79
2023/10/16 10:15:26;;;;;;;11.85;2.80;;;;;;;;;;4973375;28;20059;-79
2023/10/16 10:17:54;;;;;;;8.90;2.65;;;;;;;;;;4967801;28;20080;-79
2023/10/16 10:20:26;;;;;;;5.47;2.45;;;;;;;;;;4963819;28;20047;-79
2023/10/16 10:23:08;;;;;;;6.78;2.10;;;;;;;;;;5003661;28;20049;-78
2023/10/16 10:25:37;;;;;;;5.95;2.05;;;;;;;;;;4964030;28;20065;-79
2023/10/16 10:28:10;;;;;;;9.75;2.15;;;;;;;;;;4969851;28;20101;-79
2023/10/16 10:30:43;;;;;;;13.05;2.53;;;;;;;;;;4969378;28;20059;-79
2023/10/16 10:33:10;;;;;;;4.80;2.20;;;;;;;;;;4968553;28;20399;-79
2023/10/16 10:35:43;;;;;;;5.97;1.90;;;;;;;;;;4968317;28;20061;-78
2023/10/16 10:38:20;;;;;;;2.80;1.88;;;;;;;;;;4973629;28;20046;-79
2023/10/16 10:41:04;;;;;;;5.55;2.40;;;;;;;;;;4973923;28;20057;-78
2023/10/16 10:43:46;;;;;;;5.95;2.10;;;;;;;;;;4976944;28;20140;-78
2023/10/16 10:46:34;;;;;;;9.10;2.10;;;;;;;;;;4972375;28;20054;-79
2023/10/16 10:49:01;;;;;;;5.82;2.00;;;;;;;;;;4969660;28;20483;-79
2023/10/16 10:51:34;;;;;;;7.70;2.42;;;;;;;;;;4973277;28;20050;-79
2023/10/16 10:54:03;;;;;;;4.10;1.88;;;;;;;;;;4972819;28;20046;-79
2023/10/16 10:56:47;;;;;;;11.32;2.42;;;;;;;;;;4971188;28;20098;-79
2023/10/16 10:59:13;;;;;;;7.35;2.17;;;;;;;;;;4973325;28;20055;-79
2023/10/16 11:02:09;;;;;;;4.10;2.08;;;;;;;;;;4973129;28;20047;-78
2023/10/16 11:04:35;;;;;;;5.70;2.10;;;;;;;;;;4962630;28;20047;-77
2023/10/16 11:07:11;;;;;;;3.63;1.88;;;;;;;;;;4971118;28;20050;-78
2023/10/16 11:09:38;;;;;;;6.03;2.00;;;;;;;;;;4976009;28;20054;-78
2023/10/16 11:12:07;;;;;;;4.03;2.03;;;;;;;;;;4970506;28;20043;-78
2023/10/16 11:14:38;;;;;;;5.97;2.00;;;;;;;;;;4969290;28;20094;-78
2023/10/16 11:17:06;;;;;;;5.03;1.92;;;;;;;;;;4969646;28;20054;-78
2023/10/16 11:19:48;;;;;;;8.82;2.63;;;;;;;;;;4972093;28;20070;-78
2023/10/16 11:22:17;;;;;;;4.88;2.00;;;;;;;;;;4968181;28;20051;-78
2023/10/16 11:24:47;;;;;;;6.28;2.03;;;;;;;;;;4971329;28;20423;-78
2023/10/16 11:27:14;;;;;;;6.40;2.05;;;;;;;;;;4965861;28;20112;-78
2023/10/16 11:29:42;;;;;;;5.85;2.05;;;;;;;;;;4968567;28;20589;-78
2023/10/16 11:32:14;;;;;;;5.93;2.00;;;;;;;;;;4985192;28;20047;-77
2023/10/16 11:34:51;;;;;;;5.97;2.08;;;;;;;;;;4981111;28;20050;-79
2023/10/16 11:37:25;;;;;;;7.32;2.30;;;;;;;;;;4968295;28;20058;-79
2023/10/16 11:39:51;;;;;;;3.67;1.80;;;;;;;;;;4971093;28;20065;-78
2023/10/16 11:42:17;;;;;;;4.93;1.83;;;;;;;;;;4971527;28;20245;-78
2023/10/16 11:44:44;;;;;;;6.40;2.40;;;;;;;;;;4967231;28;20454;-79
2023/10/16 11:47:18;;;;;;;5.78;2.13;;;;;;;;;;4967219;28;20050;-79
2023/10/16 11:49:53;;;;;;;9.07;2.22;;;;;;;;;;5002189;28;20082;-79
2023/10/16 11:52:19;;;;;;;6.00;1.80;;;;;;;;;;4969624;28;20062;-79
2023/10/16 11:54:51;;;;;;;5.05;2.35;;;;;;;;;;4971082;28;20057;-79
2023/10/16 11:57:18;;;;;;;6.03;1.90;;;;;;;;;;4975436;28;20042;-78
2023/10/16 11:59:44;;;;;;;7.97;2.35;;;;;;;;;;4968328;28;20254;-79
2023/10/16 12:02:16;;;;;;;7.43;2.03;;;;;;;;;;4968612;28;20061;-79
2023/10/16 12:04:42;;;;;;;6.82;1.95;;;;;;;;;;4970312;28;20082;-78
2023/10/16 12:07:09;;;;;;;6.20;1.90;;;;;;;;;;4969922;28;20473;-78
2023/10/16 12:09:42;;;;;;;4.15;2.10;;;;;;;;;;4970876;28;20522;-79
2023/10/16 12:12:16;;;;;;;4.35;1.80;;;;;;;;;;4970596;28;20109;-79
2023/10/16 12:14:42;;;;;;;6.30;1.90;;;;;;;;;;4966640;28;20129;-79
2023/10/16 12:17:11;;;;;;;8.82;2.45;;;;;;;;;;4966820;28;20134;-79
2023/10/16 12:19:38;;;;;;;6.90;1.98;;;;;;;;;;4963965;28;20051;-78
2023/10/16 12:22:04;;;;;;;6.85;1.70;;;;;;;;;;4961945;28;20054;-79
2023/10/16 12:24:30;;;;;;;6.85;1.90;;;;;;;;;;4964943;28;20043;-79
2023/10/16 12:26:56;;;;;;;8.68;1.80;;;;;;;;;;4966808;28;20058;-79
2023/10/16 12:29:22;;;;;;;4.82;2.20;;;;;;;;;;4969155;28;20403;-79
2023/10/16 12:31:48;;;;;;;6.07;2.15;;;;;;;;;;4987439;28;20073;-79
2023/10/16 12:34:17;;;;;;;8.85;2.60;;;;;;;;;;4969420;28;20174;-79
2023/10/16 12:36:49;;;;;;;4.72;2.00;;;;;;;;;;4987785;28;20050;-80
2023/10/16 12:39:24;;;;;;;6.63;2.10;;;;;;;;;;4987587;28;20057;-80
2023/10/16 12:41:54;;;;;;;4.38;1.50;;;;;;;;;;4977098;28;20455;-79
2023/10/16 12:44:20;;;;;;;8.95;2.03;;;;;;;;;;4971140;28;20047;-79
2023/10/16 12:46:46;;;;;;;6.15;1.90;;;;;;;;;;4975208;28;20062;-79
2023/10/16 12:49:13;;;;;;;4.45;2.22;;;;;;;;;;4976590;28;20074;-79
2023/10/16 12:51:40;;;;;;;10.07;2.63;;;;;;;;;;4970008;28;20082;-80
2023/10/16 12:54:06;;;;;;;6.60;2.05;;;;;;;;;;4969894;28;20059;-79
2023/10/16 12:56:33;;;;;;;8.73;2.60;;;;;;;;;;4967115;28;20518;-79
2023/10/16 12:59:00;;;;;;;5.53;2.10;;;;;;;;;;4967372;28;20043;-79
2023/10/16 13:01:26;;;;;;;8.75;2.40;;;;;;;;;;4966573;28;20054;-79
2023/10/16 13:03:59;;;;;;;5.32;2.22;;;;;;;;;;4967735;28;20427;-79
2023/10/16 13:06:26;;;;;;;;;;;;;;;;;;4965572;28;20054;-79
2023/10/16 13:08:52;;;;;;;10.23;2.20;;;;;;;;;;4965072;28;19996;-80
2023/10/16 13:11:18;;;;;;;14.68;2.30;;;;;;;;;;4965810;28;20106;-78
2023/10/16 13:13:45;;;;;;;4.80;2.00;;;;;;;;;;4987053;28;20050;-79
2023/10/16 13:16:11;;;;;;;6.40;2.33;;;;;;;;;;4971201;28;20410;-79
2023/10/16 13:18:37;;;;;;;6.28;1.98;;;;;;;;;;4966550;28;20051;-79
2023/10/16 13:23:55;;;;;;;5.88;1.95;;;;;;;;;;4951931;28;20065;-79
2023/10/16 13:26:24;;;;;;;8.35;1.88;;;;;;;;;;4966896;28;20054;-79
2023/10/16 13:28:50;;;;;;;9.52;2.17;;;;;;;;;;4966801;28;20483;-79
2023/10/16 13:31:16;;;;;;;7.18;2.15;;;;;;;;;;4973911;28;20109;-79
2023/10/16 13:33:44;;;;;;;4.93;2.38;;;;;;;;;;4971022;28;20078;-79
2023/10/16 13:36:11;;;;;;;7.72;2.80;;;;;;;;;;4969832;28;20137;-78
2023/10/16 13:38:37;;;;;;;5.85;1.98;;;;;;;;;;4970567;28;20050;-78
2023/10/16 13:41:17;;;;;;;5.55;2.22;;;;;;;;;;4973330;28;20058;-79
2023/10/16 13:43:43;;;;;;;15.82;2.25;;;;;;;;;;4973955;28;20065;-82
2023/10/16 13:46:12;;;;;;;5.45;2.13;;;;;;;;;;4971997;28;20059;-80
2023/10/16 13:48:45;;;;;;;197.75;11.65;;;;;;;;;;4972476;28;20522;-80
2023/10/16 13:51:11;;;;;;;7.47;2.50;;;;;;;;;;4967328;28;20089;-79
2023/10/16 13:53:37;;;;;;;4.28;1.88;;;;;;;;;;4970600;28;20051;-79
2023/10/16 13:56:05;;;;;;;5.85;1.80;;;;;;;;;;4974160;28;20437;-79
2023/10/16 13:58:31;;;;;;;5.47;1.92;;;;;;;;;;4971530;28;20058;-79
2023/10/16 14:00:57;;;;;;;4.85;2.17;;;;;;;;;;4971566;28;20043;-79
2023/10/16 14:03:24;;;;;;;4.35;1.83;;;;;;;;;;4971105;28;20057;-79
2023/10/16 14:05:50;;;;;;;203.02;12.20;;;;;;;;;;4974326;28;20382;-78
2023/10/16 14:08:26;;;;;;;17.63;2.78;;;;;;;;;;4970409;28;20109;-79
2023/10/16 14:10:57;;;;;;;5.47;1.92;;;;;;;;;;4971033;28;20079;-80
2023/10/16 14:13:32;;;;;;;8.25;1.85;;;;;;;;;;4974444;28;20097;-80
2023/10/16 14:16:11;;;;;;;6.43;1.90;;;;;;;;;;4970426;28;20043;-79
2023/10/16 14:18:42;;;;;;;8.48;2.08;;;;;;;;;;4971960;28;20038;-79
2023/10/16 14:21:10;;;;;;;9.63;1.90;;;;;;;;;;4972092;28;20174;-79
2023/10/16 14:23:39;;;;;;;4.70;1.90;;;;;;;;;;4973275;28;20062;-79
2023/10/16 14:26:20;;;;;;;6.03;1.92;;;;;;;;;;4969432;28;20487;-80
2023/10/16 14:28:54;;;;;;;4.57;1.70;;;;;;;;;;4971792;28;20506;-80
2023/10/16 14:31:21;;;;;;;5.47;1.85;;;;;;;;;;4968115;28;20058;-79
2023/10/16 14:33:49;;;;;;;5.30;1.75;;;;;;;;;;4964336;28;20533;-79
2023/10/16 14:36:24;;;;;;;6.28;1.92;;;;;;;;;;4969763;28;20058;-79
2023/10/16 14:38:51;;;;;;;2.92;1.50;;;;;;;;;;5001566;28;20395;-80
2023/10/16 14:41:17;;;;;;;5.82;1.77;;;;;;;;;;4967988;28;20059;-80
2023/10/16 14:43:45;;;;;;;8.30;2.00;;;;;;;;;;4971279;28;20148;-79
2023/10/16 14:46:12;;;;;;;4.00;1.83;;;;;;;;;;4974094;28;20054;-79
2023/10/16 14:48:38;;;;;;;5.50;1.90;;;;;;;;;;5000254;28;20039;-80
2023/10/16 14:51:04;;;;;;;6.93;2.40;;;;;;;;;;4977152;28;20090;-80
2023/10/16 14:53:31;;;;;;;4.72;1.77;;;;;;;;;;4971605;28;20050;-79
2023/10/16 14:55:57;;;;;;;4.88;1.90;;;;;;;;;;4971055;28;20053;-80
2023/10/16 14:58:23;;;;;;;3.80;1.90;;;;;;;;;;4973568;28;20050;-80
2023/10/16 15:00:50;;;;;;;4.93;1.70;;;;;;;;;;4966794;28;20105;-81
2023/10/16 15:03:16;;;;;;;3.75;1.70;;;;;;;;;;4972436;28;20058;-80
2023/10/16 15:05:43;;;;;;;2.40;1.60;;;;;;;;;;4973229;28;20517;-80
2023/10/16 15:08:13;;;;;;;3.95;1.85;;;;;;;;;;4970672;28;20069;-80
2023/10/16 15:10:40;;;;;;;4.22;1.85;;;;;;;;;;4971263;28;20051;-80
2023/10/16 15:13:06;;;;;;;6.20;1.60;;;;;;;;;;4967657;28;20078;-81
2023/10/16 15:15:32;;;;;;;5.00;1.95;;;;;;;;;;4968847;28;20526;-80
2023/10/16 15:17:59;;;;;;;5.22;1.83;;;;;;;;;;4975345;28;20129;-80
2023/10/16 15:20:26;;;;;;;5.13;1.80;;;;;;;;;;4975632;28;20066;-80
2023/10/16 15:22:52;;;;;;;4.72;1.80;;;;;;;;;;4970559;28;20487;-81
2023/10/16 15:25:18;;;;;;;4.80;1.98;;;;;;;;;;4974834;28;20061;-81
2023/10/16 15:27:46;;;;;;;2.65;1.70;;;;;;;;;;4971983;28;20070;-80
2023/10/16 15:30:12;;;;;;;3.28;1.70;;;;;;;;;;4972313;28;20082;-80
2023/10/16 15:32:39;;;;;;;5.78;1.80;;;;;;;;;;4976864;28;20039;-80
2023/10/16 15:35:08;;;;;;;3.17;1.73;;;;;;;;;;4967212;28;20055;-83
2023/10/16 15:37:38;;;;;;;4.70;1.80;;;;;;;;;;4956412;28;20050;-82
2023/10/16 15:40:05;;;;;;;6.50;1.85;;;;;;;;;;4970106;28;20607;-82
2023/10/16 15:42:31;;;;;;;2.40;1.73;;;;;;;;;;4969935;28;20502;-82
2023/10/16 15:45:01;;;;;;;6.15;1.85;;;;;;;;;;4969956;28;20078;-83
2023/10/16 15:47:29;;;;;;;5.47;1.73;;;;;;;;;;4969346;28;20093;-83
2023/10/16 15:49:56;;;;;;;3.38;1.70;;;;;;;;;;4968019;28;20090;-83
2023/10/16 15:52:22;;;;;;;3.85;1.73;;;;;;;;;;4974543;28;20399;-83
2023/10/16 15:54:49;;;;;;;6.57;1.70;;;;;;;;;;4969216;28;20038;-83
2023/10/16 15:57:17;;;;;;;4.45;1.67;;;;;;;;;;4965823;28;20046;-83
2023/10/16 15:59:46;;;;;;;3.90;2.03;;;;;;;;;;4971334;28;20130;-82
2023/10/16 16:02:16;;;;;;;2.65;1.75;;;;;;;;;;4959758;28;20062;-83
2023/10/16 16:04:44;;;;;;;4.05;2.10;;;;;;;;;;4975986;28;20061;-81
2023/10/16 16:07:10;;;;;;;3.20;1.90;;;;;;;;;;4971327;28;20097;-79
2023/10/16 16:09:37;;;;;;;4.18;2.40;;;;;;;;;;4972492;28;20093;-79
2023/10/16 16:12:08;;;;;;;3.00;2.10;;;;;;;;;;4970280;28;20078;-81
2023/10/16 16:14:34;;;;;;;2.90;1.90;;;;;;;;;;4969354;28;20089;-81
2023/10/16 16:17:09;;;;;;;4.50;2.20;;;;;;;;;;4969435;28;20570;-81
2023/10/16 16:19:35;;;;;;;5.50;2.30;;;;;;;;;;4971570;28;20121;-81
2023/10/16 16:22:01;;;;;;;4.88;2.50;;;;;;;;;;4968368;28;20444;-79
2023/10/16 16:24:27;;;;;;;3.13;1.80;;;;;;;;;;4960803;28;20050;-81
2023/10/16 16:26:53;;;;;;;3.10;2.10;;;;;;;;;;4970365;28;20050;-81
2023/10/16 16:29:19;;;;;;;5.05;2.30;;;;;;;;;;4999459;28;20054;-81
2023/10/16 16:31:45;;;;;;;3.97;1.85;;;;;;;;;;4967553;28;20051;-81
2023/10/16 16:34:11;;;;;;;4.60;1.98;;;;;;;;;;4995089;28;20050;-80
2023/10/16 16:36:40;;;;;;;4.97;1.90;;;;;;;;;;4970479;28;20134;-80
2023/10/16 16:39:12;;;;;;;8.05;2.28;;;;;;;;;;4973363;28;20098;-80
2023/10/16 16:41:38;;;;;;;6.80;2.40;;;;;;;;;;4960882;28;20499;-81
2023/10/16 16:44:05;;;;;;;6.72;2.10;;;;;;;;;;4982981;28;20046;-81
2023/10/16 16:46:31;;;;;;;9.00;2.10;;;;;;;;;;4970696;28;20562;-81
2023/10/16 16:49:01;;;;;;;4.38;1.92;;;;;;;;;;4978072;28;20293;-80
2023/10/16 16:51:28;;;;;;;7.40;2.58;;;;;;;;;;4969658;28;20466;-81
2023/10/16 16:53:55;;;;;;;5.53;2.38;;;;;;;;;;4969945;28;20043;-82